Columbia, MO (65202)

11:16 AM CDT on April 19, 2015 (GMT -0500)
Westwind Park Old Southwest | | Change Station
CLOSE
Current Station
Personal Weather Station
Location: Columbia, MO
Elevation: 723 ft
Nearby Weather Stations

Elev 723 ft 38.94 °N, 92.36 °W | Updated 6 seconds ago

Rain
Rain
58.9 °F
Feels Like 58.9 °F
N
0.0
Wind Variable Wind from ESE
Gusts 0.0 mph

Today
High -- | Low -- °F
--% Chance of Precip.
Yesterday
High -- | Low -- °F
Precip. -- in
6:27 AM 7:50 PM
New Moon, 1% visible
Pressure 29.65 in
Visibility 5.0 miles
Clouds Overcast 8500 ft
Dew Point 58 °F
Humidity 98%
Rainfall 0.49 in
Snow Depth Not available.
UV 0.0 out of 12
Pollen 7.20 out of 12
Air Quality Not available.
Flu Activity Local Activity
METAR KCOU 191554Z 27004KT 5SM -RA BR OVC085 16/15 A2966 RMK AO2 SLP040 P0007 T01560150

More Conditions Fewer Conditions

Pressure 29.65 in
Visibility 5.0 miles
Clouds Overcast 8500 ft
Dew Point 58 °F
Humidity 98%
Rainfall 0.49 in
Snow Depth Not available.
UV 0.0 out of 12
Pollen 7.20 out of 12
Air Quality Not available.
Flu Activity Local Activity
METAR KCOU 191554Z 27004KT 5SM -RA BR OVC085 16/15 A2966 RMK AO2 SLP040 P0007 T01560150

More Conditions Fewer Conditions

10-Day Weather Forecast

Almanac

Astronomy

Apr. 19, 2015 Rise Set
Actual Time
Civil Twilight
Nautical Twilight
Astronomical Twilight
Moon
Length of Visible Light
Length of Day
Tomorrow will be .
, % of the Moon is Illuminated

Today's Extremes

State Highs State Lows

Community

WunderPhotos

Upload Photos

1,814,842 photos uploaded!

WunderBlogs® & News

Nearby

Air Quality

  Air Quality AQ Index Pollutant
Not available.

Snow Depth

Station Depth Elevation

Earthquake Activity

City Distance Mag. Time & Date
Minimum magnitude displayed is 2.5.

Coastal Water Temperatures

Place Temperature

Stations

Nearby Weather Stations

Station Location Temp. Windchill Dew Point Humidity Wind Precip. Elev Updated Type